Lake Wazeecha, Wisconsin
Current Conditions -  °F | °C
As of 4:32 PM on Sunday 23 Nov 2014 (Local Time) from KISW Reporting Station
Light Rain Light Rain  
Wind Chill: 46°   Ceiling: 400
Heat Index: 48°   Visibility: NA
Dew Point: 46°   Wind: 5mph
Humidity: 93%   Direction: 130°SE
Pressure: 29.4"   Gusts: NA
Location:  44.3431°N, 89.7334°W
Report Text: KISW 232232Z AUTO 13004KT -RA OVC004 09/08 A2940 RMK AO2 RAB15 P0000 T00890078 $
Loading
Personal Weather Stations






























Interactive Weather Map New forecast layout! Learn more

10-Day Weather Forecast

Advertisements
Track Severe Weather on mobile